All Lego sets with set number 41000 to 42000

Sort on
Set TitlePriceDifferenceAdded
Water Scooter Fun (41000)€ 5.49- € 0.50 (8%)2012-12-17
Rehearsal Stage (41004)€ 24.95+ € 4.96 (25%)2012-12-17
Stephanie's Soccer Practice (41011)€ 14.95+ € 4.96 (50%)2012-12-17
LEGO® Friends Advent Calendar (41016)€ 19.98- € 3.01 (13%)2013-09-25
Emma's Lifeguard Post (41028)€ 10.95+ € 0.96 (10%)2013-12-27
Stephanie's New Born Lamb (41029)€ 9.95- € 0.04 (0%)2013-12-27
First Aid Jungle Bike (41032)€ 15.99- € 1.88 (11%)2014-05-31
Turtle's Little Paradise (41041)€ 5.95+ € 1.46 (33%)2013-12-27
Tiger's Beautiful Temple (41042)€ 18.43+ € 13.94 (310%)2013-12-27
Macaw's Fountain (41044)€ 4.95+ € 0.46 (10%)2014-05-14
Brown Bear's River (41046)€ 4.95+ € 0.46 (10%)2014-05-14
Best everRapunzel's Best Day Ever (41065)€ 14.98- € 11.32 (43%)2016-05-26
Anna & Kristoff’s Sleigh Adventure (41066)€ 18.36- € 16.03 (47%)2015-12-04
Belle's Enchanted Castle (41067)€ 39.98- € 25.79 (39%)2016-05-26
Arendelle Castle Celebration (41068)€ 42.11- € 26.67 (39%)2015-12-04
Treasure’s Day at the Pool (41069)€ 5.77- € 3.85 (40%)2015-12-15
Aira's Creative Workshop (41071)€ 11.53- € 2.22 (16%)2015-03-01
Naida's Epic Adventure Ship (41073)€ 29.99- € 4.40 (13%)2015-03-01
Heartlake Lighthouse (41094)€ 33.74- € 21.28 (39%)2014-12-25
Emma’s House (41095)€ 54.99- € 27.55 (33%)2014-12-25
Heartlake Hot Air Balloon (41097)€ 24.99- € 9.40 (27%)2014-12-25
Emma’s Tourist Kiosk (41098)€ 8.95- € 4.80 (35%)2015-06-01
Heartlake Skate Park (41099)€ 17.99- € 6.76 (27%)2015-06-01
Heartlake Private Jet (41100)€ 32.99+ € 5.48 (20%)2015-06-01
Heartlake Grand Hotel (41101)€ 89.92- € 47.66 (35%)2015-06-01
Pop Star Recording Studio (41103)€ 16.99- € 0.88 (5%)2015-06-01
Pop Star Show Stage (41105)€ 46.99- € 1.16 (2%)2015-06-01
Pop Star Tour Bus (41106)€ 40.43- € 28.35 (41%)2015-06-01
Heartlake Food Market (41108)€ 44.95- € 3.20 (7%)2015-06-01
Heartlake Airport (41109)€ 89.95- € 13.23 (13%)2015-06-01
Birthday Party (41110)€ 16.95- € 7.80 (32%)2015-12-15
Party Train (41111)€ 7.99- € 4.38 (35%)2015-12-15
Party Cakes (41112)€ 5.99+ € 0.50 (9%)2015-12-15
Party Gift Shop (41113)€ 5.45- € 0.04 (1%)2015-12-15
Party Styling (41114)€ 3.99- € 1.50 (27%)2015-12-15
Emma's Creative Workshop (41115)€ 9.99- € 2.33 (19%)2015-12-19
Olivia's Exploration Car (41116)€ 11.99- € 5.81 (33%)2015-12-19
Pop Star TV Studio (41117)€ 19.99- € 4.66 (19%)2015-12-19
Heartlake Supermarket (41118)€ 26.88- € 14.22 (35%)2015-12-19
Heartlake Cupcake Café (41119)€ 30.88- € 17.07 (36%)2015-12-19
Adventure Camp Archery (41120)€ 9.98- € 2.39 (19%)2015-12-15
Adventure Camp Rafting (41121)€ 23.99- € 10.40 (30%)2015-12-15
Adventure Camp Tree House (41122)€ 34.60- € 47.94 (58%)2015-12-15
Foal's Washing Station (41123)€ 7.99- € 3.84 (32%)2016-05-29
Heartlake Puppy Daycare (41124)€ 21.63- € 11.21 (34%)2016-05-27
Horse Vet Trailer (41125)€ 29.88- € 16.10 (35%)2016-05-27
Heartlake Riding Club (41126)€ 44.88- € 20.81 (32%)2016-05-27
Amusement Park Arcade (41127)€ 9.74- € 7.33 (43%)2016-05-27
Amusement Park Space Ride (41128)€ 15.99- € 7.65 (32%)2016-05-27
Amusement Park Hot Dog Van (41129)€ 23.05- € 9.79 (30%)2016-05-27
Amusement Park Roller Coaster (41130)€ 74.88- € 43.38 (37%)2016-05-27
LEGO® Friends Advent Calendar (41131)€ 14.99- € 8.55 (36%)2016-08-31
Heartlake Party Shop (41132)€ 28.83- € 4.04 (12%)2016-05-29
Amusement Park Bumper Cars (41133)€ 30.77- € 15.26 (33%)2016-05-29
Heartlake Performance School (41134)€ 86.53- € 5.54 (6%)2016-05-29
Livi's Pop Star House (41135)€ 54.99- € 13.79 (20%)2015-12-15
Daisy’s Beauty Salon (41140)€ 5.75- € 6.62 (54%)2015-12-15
Pumpkin’s Royal Carriage (41141)€ 9.95- € 2.42 (20%)2015-12-15
Palace Pets Royal Castle (41142)€ 15.02- € 12.37 (45%)2015-12-19
Berry's Kitchen (41143)€ 3.47- € 2.43 (41%)2016-12-01
Petite's Royal Stable (41144)€ 5.77- € 4.85 (46%)2016-12-01
Anna's Snow Adventure (41147)€ 13.93- € 9.69 (41%)2016-12-01
Best everElsa's Magical Ice Palace (41148)€ 49.72- € 27.06 (35%)2016-12-01
Best everMoana's Island Adventure (41149)€ 18.44- € 11.08 (38%)2016-12-01
Best everMoana's Ocean Voyage (41150)€ 29.98- € 17.26 (37%)2016-12-01
Emily Jones & the Baby Wind Dragon (41171)€ 13.95+ € 2.44 (21%)2016-03-01
The Water Dragon Adventure (41172)€ 16.95- € 6.08 (26%)2016-03-01
Fire Dragon's Lava Cave (41175)€ 31.99- € 12.80 (29%)2016-03-01
The Secret Market Place (41176)€ 48.05- € 15.94 (25%)2016-03-01
The Precious Crystal Mine (41177)€ 24.99- € 7.89 (24%)2016-05-26
Queen Dragon's Rescue (41179)€ 50.34- € 28.58 (36%)2016-05-26
Ragana's Magic Shadow Castle (41180)€ 61.30- € 37.36 (38%)2016-05-26
Best everNaida's Gondola & the Goblin Thief (41181)€ 7.99- € 2.53 (24%)2017-03-01
Best everThe Capture of Sophie Jones (41182)€ 15.99- € 5.07 (24%)2017-03-01
Best everThe Goblin King's Evil Dragon (41183)€ 23.99- € 5.26 (18%)2017-03-01
Best everAira's Airship & the Amulet Chase (41184)€ 31.99- € 14.81 (32%)2017-03-01
Best everMagic Rescue from the Goblin Village (41185)€ 53.95- € 10.11 (16%)2017-03-01
Batgirl™ Batjet Chase (41230)€ 17.99- € 5.63 (24%)2016-12-01
Harley Quinn™ to the rescue (41231)€ 22.99- € 6.53 (22%)2016-12-01
Super Hero High School (41232)€ 63.99- € 24.60 (28%)2016-12-01
Lashina™ Tank (41233)€ 10.25- € 3.92 (28%)2016-12-01
Bumblebee™ Helicopter (41234)€ 11.99- € 2.18 (15%)2016-12-01
Wonder Woman™ Dorm (41235)€ 15.99- € 7.63 (32%)2016-12-01
Puppy Championship (41300)€ 15.99- € 5.26 (25%)2016-12-01
Puppy Parade (41301)€ 11.99- € 3.36 (22%)2016-12-01
Puppy Pampering (41302)€ 3.99- € 0.72 (15%)2016-12-01
Puppy Playground (41303)€ 3.99- € 0.72 (15%)2016-12-01
Puppy Treats & Tricks (41304)€ 3.99- € 0.72 (15%)2016-12-01
Emma's Photo Studio (41305)€ 7.99- € 2.62 (25%)2016-12-01
Mia's Beach Scooter (41306)€ 7.99- € 2.62 (25%)2016-12-01
Olivia's Creative Lab (41307)€ 7.99- € 2.62 (25%)2016-12-01
Best everStephanie's Friendship Cakes (41308)€ 7.99- € 2.62 (25%)2016-12-01
Andrea's Musical Duet (41309)€ 7.99- € 2.62 (25%)2016-12-01
Heartlake Gift Delivery (41310)€ 14.98- € 6.26 (29%)2016-12-01
Heartlake Pizzeria (41311)€ 23.08- € 6.42 (22%)2016-12-01
Heartlake Sports Center (41312)€ 30.88- € 16.32 (35%)2016-12-01
Heartlake Summer Pool (41313)€ 38.88- € 26.03 (40%)2016-12-01
Best everStephanie's House (41314)€ 49.88- € 26.84 (35%)2016-12-01
Gox (41536)€ 6.95+ € 2.82 (68%)2015-06-01
Jinky (41537)€ 6.95+ € 2.82 (68%)2015-06-01
Kamzo (41538)€ 6.95+ € 2.82 (68%)2015-06-01
Spugg (41542)€ 6.95+ € 2.82 (68%)2015-06-01
Turg (41543)€ 6.95+ € 2.82 (68%)2015-06-01
Tungster (41544)€ 6.95+ € 2.82 (68%)2015-06-01
Batman™ (41585)€ 11.53- € 0.10 (1%)2017-02-01
Batgirl™ (41586)€ 11.53- € 0.10 (1%)2017-02-01
Robin™ (41587)€ 11.53- € 0.10 (1%)2017-02-01
The Joker™ (41588)€ 11.53- € 0.10 (1%)2017-02-01
Captain America (41589)€ 11.53- € 0.10 (1%)2017-02-01
Iron Man (41590)€ 11.53- € 0.10 (1%)2017-02-01
Black Widow (41591)€ 11.53- € 0.10 (1%)2017-02-01
The Hulk (41592)€ 11.53- € 0.10 (1%)2017-02-01
Captain Jack Sparrow (41593)€ 11.53- € 0.32 (3%)2017-02-24
Captain Armando Salazar (41594)€ 11.53- € 0.32 (3%)2017-02-24
Belle (41595)€ 11.53- € 0.10 (1%)2017-02-03
Beast (41596)€ 11.53- € 0.10 (1%)2017-02-03
4x4 Crawler Exclusive Edition (41999)€ 749.99+ € 570.00 (317%)2013-08-01

Also show unavailable sets